Kunsan Air Base
RKJK : now visible

Airfield :











YOU CAN JOIN US ON...

 
LOGIN :

Register | Disclaimer

   EN    FR    IT 

 









Legend :    VFR   Marginal VFR   IFR   Intensive IFR   Very Intensive IFR
Visi :
Ceiling :
>= 8 km
>= 3000ft
5 to 8 km
1000 to 3000 ft
1500m to 5 km
500 to 1000 ft
800 to 1500m
200 to 500 ft
< 800m
< 200 ft
Symbols :   Thunderstorms  Fog  Heavy snow  Heavy precipitations  Wind > 20 kt






- Airport Elevation : 29 ft
- IATA code : KUV


RKJK - Kunsan Air Base

CURRENT METAR :
  • 162256Z AUTO 06007KT 5SM BR SCT042 BKN060 12/12 A3009 RMK AO2 SLP194 T01150115 $

EXPIRED METARs :
  • 162156Z AUTO 08005KT 6SM BR FEW055 SCT070 11/11 A3008 RMK AO2 SLP191 T01090109 $
  • 162056Z AUTO 07006KT 5SM BR CLR 11/11 A3010 RMK AO2 RAB28E40DZB40E41 SLP197 P0000 60000 T01060106 57012 $

TAF TAF RKJK
Valid from the 16 at 23:00 until the 18 at 05:00 UTC


162300Z 1623/1805 10009KT 8000 -RA BR FEW010 SCT020 BKN030 BKN100 650808 QNH3005INS
BECMG 1702/1703 14010G15KT 6000 -SHRA BKN010 OVC025 641006 QNH2999INS
BECMG 1704/1705 16012G18KT 6000 -SHRA BKN010 OVC025 641006 QNH2996INS
TEMPO 1707/1715 18020G30KT 510003
BECMG 1715/1716 29020G30KT 6000 RA OVC010 651002 510003 QNH2989INS TX16/1703Z TN09/1718Z



MET'MAP, your aeronautical weather chart ! - Copyright ORBIFLY December 2007 - Disclaimer

ORBIFLY MET'MAP TEAM :

Programming & Development : Alexandra Zaïnal
Concept & Development : Baudouin d'Aumeries
Co-Development & Prog : Marc-Olivier Méhu
Technical & hardware support : Manuel Goepfert

Contact : metmap@orbifly.com




SOURCES & CREDITS :

   NOAA       Earth
Advisory